sensor_id;sensor_type;location;lat;lon;timestamp;temperature;humidity
49413;DHT22;35493;50.276;9.372;2022-07-23T00:01:41;23.60;62.80
49413;DHT22;35493;50.276;9.372;2022-07-23T00:04:08;23.60;62.40
49413;DHT22;35493;50.276;9.372;2022-07-23T00:06:35;23.60;62.20
49413;DHT22;35493;50.276;9.372;2022-07-23T00:09:03;23.60;62.00
49413;DHT22;35493;50.276;9.372;2022-07-23T00:11:30;23.50;61.80
49413;DHT22;35493;50.276;9.372;2022-07-23T00:13:57;23.60;61.70
49413;DHT22;35493;50.276;9.372;2022-07-23T00:16:24;23.60;61.70
49413;DHT22;35493;50.276;9.372;2022-07-23T00:18:51;23.60;61.70
49413;DHT22;35493;50.276;9.372;2022-07-23T00:21:18;23.50;61.90
49413;DHT22;35493;50.276;9.372;2022-07-23T00:23:45;23.50;62.10
49413;DHT22;35493;50.276;9.372;2022-07-23T00:26:14;23.50;62.40
49413;DHT22;35493;50.276;9.372;2022-07-23T00:28:41;23.50;62.20
49413;DHT22;35493;50.276;9.372;2022-07-23T00:31:08;23.50;62.00
49413;DHT22;35493;50.276;9.372;2022-07-23T00:33:35;23.50;62.00
49413;DHT22;35493;50.276;9.372;2022-07-23T00:36:02;23.40;62.00
49413;DHT22;35493;50.276;9.372;2022-07-23T00:38:29;23.40;62.00
49413;DHT22;35493;50.276;9.372;2022-07-23T00:40:56;23.30;62.10
49413;DHT22;35493;50.276;9.372;2022-07-23T00:43:24;23.30;62.10
49413;DHT22;35493;50.276;9.372;2022-07-23T00:45:51;23.30;62.10
49413;DHT22;35493;50.276;9.372;2022-07-23T00:48:18;23.30;62.10
49413;DHT22;35493;50.276;9.372;2022-07-23T00:50:45;23.30;61.90
49413;DHT22;35493;50.276;9.372;2022-07-23T00:53:12;23.30;61.90
49413;DHT22;35493;50.276;9.372;2022-07-23T00:55:40;23.30;62.00
49413;DHT22;35493;50.276;9.372;2022-07-23T00:58:07;23.30;62.20
49413;DHT22;35493;50.276;9.372;2022-07-23T01:00:36;23.30;62.20
49413;DHT22;35493;50.276;9.372;2022-07-23T01:03:03;23.30;62.50
49413;DHT22;35493;50.276;9.372;2022-07-23T01:05:30;23.20;62.70
49413;DHT22;35493;50.276;9.372;2022-07-23T01:07:57;23.10;63.10
49413;DHT22;35493;50.276;9.372;2022-07-23T01:10:25;23.10;63.30
49413;DHT22;35493;50.276;9.372;2022-07-23T01:12:58;23.20;62.80
49413;DHT22;35493;50.276;9.372;2022-07-23T01:15:26;23.30;62.60
49413;DHT22;35493;50.276;9.372;2022-07-23T01:17:54;23.20;62.50
49413;DHT22;35493;50.276;9.372;2022-07-23T01:20:22;23.20;62.70
49413;DHT22;35493;50.276;9.372;2022-07-23T01:22:50;23.10;63.10
49413;DHT22;35493;50.276;9.372;2022-07-23T01:25:18;23.10;63.20
49413;DHT22;35493;50.276;9.372;2022-07-23T01:27:53;23.10;63.00
49413;DHT22;35493;50.276;9.372;2022-07-23T01:30:21;23.10;62.90
49413;DHT22;35493;50.276;9.372;2022-07-23T01:32:48;23.10;63.30
49413;DHT22;35493;50.276;9.372;2022-07-23T01:35:15;23.10;65.20
49413;DHT22;35493;50.276;9.372;2022-07-23T01:37:42;23.00;66.70
49413;DHT22;35493;50.276;9.372;2022-07-23T01:40:12;22.80;68.30
49413;DHT22;35493;50.276;9.372;2022-07-23T01:42:39;22.70;69.00
49413;DHT22;35493;50.276;9.372;2022-07-23T01:45:08;22.70;69.30
49413;DHT22;35493;50.276;9.372;2022-07-23T01:47:37;22.70;69.40
49413;DHT22;35493;50.276;9.372;2022-07-23T01:50:05;22.60;70.00
49413;DHT22;35493;50.276;9.372;2022-07-23T01:53:05;22.60;69.60
49413;DHT22;35493;50.276;9.372;2022-07-23T01:55:36;22.60;70.10
49413;DHT22;35493;50.276;9.372;2022-07-23T01:58:03;22.50;70.70
49413;DHT22;35493;50.276;9.372;2022-07-23T02:00:31;22.40;71.10
49413;DHT22;35493;50.276;9.372;2022-07-23T02:02:59;22.30;71.50
49413;DHT22;35493;50.276;9.372;2022-07-23T02:05:27;22.40;71.50
49413;DHT22;35493;50.276;9.372;2022-07-23T02:07:55;22.30;71.70
49413;DHT22;35493;50.276;9.372;2022-07-23T02:10:23;22.20;72.20
49413;DHT22;35493;50.276;9.372;2022-07-23T02:12:51;22.30;72.70
49413;DHT22;35493;50.276;9.372;2022-07-23T02:15:18;22.30;73.00
49413;DHT22;35493;50.276;9.372;2022-07-23T02:17:45;22.20;73.20
49413;DHT22;35493;50.276;9.372;2022-07-23T02:20:12;22.20;73.00
49413;DHT22;35493;50.276;9.372;2022-07-23T02:22:42;22.30;73.70
49413;DHT22;35493;50.276;9.372;2022-07-23T02:25:09;22.20;74.00
49413;DHT22;35493;50.276;9.372;2022-07-23T02:27:37;22.10;74.50
49413;DHT22;35493;50.276;9.372;2022-07-23T02:30:07;22.20;73.80
49413;DHT22;35493;50.276;9.372;2022-07-23T02:32:35;22.20;73.80
49413;DHT22;35493;50.276;9.372;2022-07-23T02:35:02;22.10;74.20
49413;DHT22;35493;50.276;9.372;2022-07-23T02:37:30;22.10;74.50
49413;DHT22;35493;50.276;9.372;2022-07-23T02:39:57;22.00;74.80
49413;DHT22;35493;50.276;9.372;2022-07-23T02:42:24;22.10;74.60
49413;DHT22;35493;50.276;9.372;2022-07-23T02:44:51;22.10;74.60
49413;DHT22;35493;50.276;9.372;2022-07-23T02:47:20;22.00;74.60
49413;DHT22;35493;50.276;9.372;2022-07-23T02:49:47;22.10;74.70
49413;DHT22;35493;50.276;9.372;2022-07-23T02:52:13;22.00;74.60
49413;DHT22;35493;50.276;9.372;2022-07-23T02:54:42;22.10;74.20
49413;DHT22;35493;50.276;9.372;2022-07-23T02:57:11;22.10;74.20
49413;DHT22;35493;50.276;9.372;2022-07-23T02:59:38;22.00;74.60
49413;DHT22;35493;50.276;9.372;2022-07-23T03:02:05;21.90;74.70
49413;DHT22;35493;50.276;9.372;2022-07-23T03:04:33;21.90;74.90
49413;DHT22;35493;50.276;9.372;2022-07-23T03:07:00;21.80;75.10
49413;DHT22;35493;50.276;9.372;2022-07-23T03:09:27;21.80;75.00
49413;DHT22;35493;50.276;9.372;2022-07-23T03:11:53;21.80;75.00
49413;DHT22;35493;50.276;9.372;2022-07-23T03:14:20;21.90;74.70
49413;DHT22;35493;50.276;9.372;2022-07-23T03:16:49;21.80;74.80
49413;DHT22;35493;50.276;9.372;2022-07-23T03:19:16;21.90;74.80
49413;DHT22;35493;50.276;9.372;2022-07-23T03:21:44;21.80;74.90
49413;DHT22;35493;50.276;9.372;2022-07-23T03:24:12;21.70;75.10
49413;DHT22;35493;50.276;9.372;2022-07-23T03:26:38;21.60;75.30
49413;DHT22;35493;50.276;9.372;2022-07-23T03:29:06;21.60;75.70
49413;DHT22;35493;50.276;9.372;2022-07-23T03:31:33;21.60;75.80
49413;DHT22;35493;50.276;9.372;2022-07-23T03:34:00;21.60;75.80
49413;DHT22;35493;50.276;9.372;2022-07-23T03:36:28;21.50;76.00
49413;DHT22;35493;50.276;9.372;2022-07-23T03:38:57;21.50;76.10
49413;DHT22;35493;50.276;9.372;2022-07-23T03:41:24;21.50;76.30
49413;DHT22;35493;50.276;9.372;2022-07-23T03:43:51;21.50;76.50
49413;DHT22;35493;50.276;9.372;2022-07-23T03:46:18;21.50;76.60
49413;DHT22;35493;50.276;9.372;2022-07-23T03:48:45;21.50;76.50
49413;DHT22;35493;50.276;9.372;2022-07-23T03:51:13;21.50;76.20
49413;DHT22;35493;50.276;9.372;2022-07-23T03:53:40;21.50;76.20
49413;DHT22;35493;50.276;9.372;2022-07-23T03:56:08;21.40;76.20
49413;DHT22;35493;50.276;9.372;2022-07-23T03:58:35;21.50;76.20
49413;DHT22;35493;50.276;9.372;2022-07-23T04:01:02;21.40;76.30
49413;DHT22;35493;50.276;9.372;2022-07-23T04:03:29;21.40;76.40
49413;DHT22;35493;50.276;9.372;2022-07-23T04:05:57;21.40;76.60
49413;DHT22;35493;50.276;9.372;2022-07-23T04:08:24;21.30;76.90
49413;DHT22;35493;50.276;9.372;2022-07-23T04:10:52;21.30;76.80
49413;DHT22;35493;50.276;9.372;2022-07-23T04:13:22;21.30;76.90
49413;DHT22;35493;50.276;9.372;2022-07-23T04:15:50;21.40;77.00
49413;DHT22;35493;50.276;9.372;2022-07-23T04:18:17;21.40;77.00
49413;DHT22;35493;50.276;9.372;2022-07-23T04:20:54;21.40;77.00
49413;DHT22;35493;50.276;9.372;2022-07-23T04:23:21;21.40;76.60
49413;DHT22;35493;50.276;9.372;2022-07-23T04:25:49;21.40;76.30
49413;DHT22;35493;50.276;9.372;2022-07-23T04:28:16;21.50;76.40
49413;DHT22;35493;50.276;9.372;2022-07-23T04:30:44;21.30;76.40
49413;DHT22;35493;50.276;9.372;2022-07-23T04:33:13;21.30;76.40
49413;DHT22;35493;50.276;9.372;2022-07-23T04:35:40;21.30;76.60
49413;DHT22;35493;50.276;9.372;2022-07-23T04:38:28;21.30;76.70
49413;DHT22;35493;50.276;9.372;2022-07-23T04:40:59;21.30;76.90
49413;DHT22;35493;50.276;9.372;2022-07-23T04:43:26;21.30;77.10
49413;DHT22;35493;50.276;9.372;2022-07-23T04:45:55;21.20;77.10
49413;DHT22;35493;50.276;9.372;2022-07-23T04:48:23;21.20;77.20
49413;DHT22;35493;50.276;9.372;2022-07-23T04:50:58;21.30;77.30
49413;DHT22;35493;50.276;9.372;2022-07-23T04:53:28;21.20;77.40
49413;DHT22;35493;50.276;9.372;2022-07-23T04:56:00;21.20;77.50
49413;DHT22;35493;50.276;9.372;2022-07-23T04:58:29;21.20;77.60
49413;DHT22;35493;50.276;9.372;2022-07-23T05:00:59;21.30;77.40
49413;DHT22;35493;50.276;9.372;2022-07-23T05:03:32;21.30;77.20
49413;DHT22;35493;50.276;9.372;2022-07-23T05:05:59;21.30;77.00
49413;DHT22;35493;50.276;9.372;2022-07-23T05:08:27;21.30;77.10
49413;DHT22;35493;50.276;9.372;2022-07-23T05:10:56;21.30;77.20
49413;DHT22;35493;50.276;9.372;2022-07-23T05:13:22;21.30;76.90
49413;DHT22;35493;50.276;9.372;2022-07-23T05:15:51;21.30;76.80
49413;DHT22;35493;50.276;9.372;2022-07-23T05:18:20;21.40;76.10
49413;DHT22;35493;50.276;9.372;2022-07-23T05:20:47;21.40;75.90
49413;DHT22;35493;50.276;9.372;2022-07-23T05:23:18;21.50;75.90
49413;DHT22;35493;50.276;9.372;2022-07-23T05:25:46;21.50;76.20
49413;DHT22;35493;50.276;9.372;2022-07-23T05:28:13;21.40;76.40
49413;DHT22;35493;50.276;9.372;2022-07-23T05:30:40;21.40;76.30
49413;DHT22;35493;50.276;9.372;2022-07-23T05:33:11;21.40;76.20
49413;DHT22;35493;50.276;9.372;2022-07-23T05:35:40;21.40;76.20
49413;DHT22;35493;50.276;9.372;2022-07-23T05:38:26;21.40;75.30
49413;DHT22;35493;50.276;9.372;2022-07-23T05:40:56;21.60;75.00
49413;DHT22;35493;50.276;9.372;2022-07-23T05:43:23;21.60;74.90
49413;DHT22;35493;50.276;9.372;2022-07-23T05:45:50;21.70;74.40
49413;DHT22;35493;50.276;9.372;2022-07-23T05:48:17;21.80;74.10
49413;DHT22;35493;50.276;9.372;2022-07-23T05:50:59;21.80;74.10
49413;DHT22;35493;50.276;9.372;2022-07-23T05:53:30;21.80;74.20
49413;DHT22;35493;50.276;9.372;2022-07-23T05:56:07;21.80;74.30
49413;DHT22;35493;50.276;9.372;2022-07-23T05:58:36;21.80;74.10
49413;DHT22;35493;50.276;9.372;2022-07-23T06:01:03;21.90;73.80
49413;DHT22;35493;50.276;9.372;2022-07-23T06:03:38;21.90;73.50
49413;DHT22;35493;50.276;9.372;2022-07-23T06:06:07;21.90;73.00
49413;DHT22;35493;50.276;9.372;2022-07-23T06:08:35;21.90;73.20
49413;DHT22;35493;50.276;9.372;2022-07-23T06:11:04;22.00;73.20
49413;DHT22;35493;50.276;9.372;2022-07-23T06:13:31;22.00;73.20
49413;DHT22;35493;50.276;9.372;2022-07-23T06:15:58;22.00;72.90
49413;DHT22;35493;50.276;9.372;2022-07-23T06:18:26;21.90;72.80
49413;DHT22;35493;50.276;9.372;2022-07-23T06:20:53;21.90;73.20
49413;DHT22;35493;50.276;9.372;2022-07-23T06:23:22;21.90;72.80
49413;DHT22;35493;50.276;9.372;2022-07-23T06:25:49;21.90;73.10
49413;DHT22;35493;50.276;9.372;2022-07-23T06:28:19;21.90;72.70
49413;DHT22;35493;50.276;9.372;2022-07-23T06:30:46;22.00;73.10
49413;DHT22;35493;50.276;9.372;2022-07-23T06:33:13;21.90;73.20
49413;DHT22;35493;50.276;9.372;2022-07-23T06:35:41;21.90;73.20
49413;DHT22;35493;50.276;9.372;2022-07-23T06:38:08;22.00;73.20
49413;DHT22;35493;50.276;9.372;2022-07-23T06:40:36;22.00;73.30
49413;DHT22;35493;50.276;9.372;2022-07-23T06:43:03;22.00;73.20
49413;DHT22;35493;50.276;9.372;2022-07-23T06:45:34;22.00;73.00
49413;DHT22;35493;50.276;9.372;2022-07-23T06:48:04;22.00;73.20
49413;DHT22;35493;50.276;9.372;2022-07-23T06:50:31;22.10;73.30
49413;DHT22;35493;50.276;9.372;2022-07-23T06:52:58;22.10;72.90
49413;DHT22;35493;50.276;9.372;2022-07-23T06:55:25;22.20;72.40
49413;DHT22;35493;50.276;9.372;2022-07-23T06:57:53;22.20;72.30
49413;DHT22;35493;50.276;9.372;2022-07-23T07:00:21;22.30;72.40
49413;DHT22;35493;50.276;9.372;2022-07-23T07:02:48;22.40;72.20
49413;DHT22;35493;50.276;9.372;2022-07-23T07:05:15;22.50;72.00
49413;DHT22;35493;50.276;9.372;2022-07-23T07:07:42;22.50;71.90
49413;DHT22;35493;50.276;9.372;2022-07-23T07:10:09;22.60;71.60
49413;DHT22;35493;50.276;9.372;2022-07-23T07:12:36;22.80;71.50
49413;DHT22;35493;50.276;9.372;2022-07-23T07:15:05;22.80;71.30
49413;DHT22;35493;50.276;9.372;2022-07-23T07:17:32;22.90;71.10
49413;DHT22;35493;50.276;9.372;2022-07-23T07:19:59;22.80;70.90
49413;DHT22;35493;50.276;9.372;2022-07-23T07:22:26;22.80;70.90
49413;DHT22;35493;50.276;9.372;2022-07-23T07:24:53;22.80;71.10
49413;DHT22;35493;50.276;9.372;2022-07-23T07:27:20;22.80;70.90
49413;DHT22;35493;50.276;9.372;2022-07-23T07:29:47;22.80;70.60
49413;DHT22;35493;50.276;9.372;2022-07-23T07:32:16;22.70;70.90
49413;DHT22;35493;50.276;9.372;2022-07-23T07:34:43;22.70;70.80
49413;DHT22;35493;50.276;9.372;2022-07-23T07:37:10;22.70;70.60
49413;DHT22;35493;50.276;9.372;2022-07-23T07:39:37;22.80;70.40
49413;DHT22;35493;50.276;9.372;2022-07-23T07:42:04;22.90;70.20
49413;DHT22;35493;50.276;9.372;2022-07-23T07:44:31;22.90;70.20
49413;DHT22;35493;50.276;9.372;2022-07-23T07:46:58;23.00;70.10
49413;DHT22;35493;50.276;9.372;2022-07-23T07:49:26;23.10;69.60
49413;DHT22;35493;50.276;9.372;2022-07-23T07:51:53;23.30;69.50
49413;DHT22;35493;50.276;9.372;2022-07-23T07:54:20;23.30;69.40
49413;DHT22;35493;50.276;9.372;2022-07-23T07:56:47;23.30;69.40
49413;DHT22;35493;50.276;9.372;2022-07-23T07:59:14;23.40;69.30
49413;DHT22;35493;50.276;9.372;2022-07-23T08:01:41;23.30;69.00
49413;DHT22;35493;50.276;9.372;2022-07-23T08:04:08;23.40;68.70
49413;DHT22;35493;50.276;9.372;2022-07-23T08:06:36;23.40;68.60
49413;DHT22;35493;50.276;9.372;2022-07-23T08:09:04;23.40;68.60
49413;DHT22;35493;50.276;9.372;2022-07-23T08:11:31;23.50;68.90
49413;DHT22;35493;50.276;9.372;2022-07-23T08:13:58;23.50;68.80
49413;DHT22;35493;50.276;9.372;2022-07-23T08:16:25;23.60;68.70
49413;DHT22;35493;50.276;9.372;2022-07-23T08:18:52;23.70;68.70
49413;DHT22;35493;50.276;9.372;2022-07-23T08:21:18;23.80;68.30
49413;DHT22;35493;50.276;9.372;2022-07-23T08:23:47;23.90;68.10
49413;DHT22;35493;50.276;9.372;2022-07-23T08:26:14;24.10;67.80
49413;DHT22;35493;50.276;9.372;2022-07-23T08:28:41;24.20;67.60
49413;DHT22;35493;50.276;9.372;2022-07-23T08:31:08;24.30;67.30
49413;DHT22;35493;50.276;9.372;2022-07-23T08:33:37;24.40;67.00
49413;DHT22;35493;50.276;9.372;2022-07-23T08:36:04;24.50;67.30
49413;DHT22;35493;50.276;9.372;2022-07-23T08:38:32;24.70;66.80
49413;DHT22;35493;50.276;9.372;2022-07-23T08:41:02;24.70;66.70
49413;DHT22;35493;50.276;9.372;2022-07-23T08:43:31;24.90;66.40
49413;DHT22;35493;50.276;9.372;2022-07-23T08:46:00;25.00;65.80
49413;DHT22;35493;50.276;9.372;2022-07-23T08:48:31;25.10;65.00
49413;DHT22;35493;50.276;9.372;2022-07-23T08:51:01;25.10;65.10
49413;DHT22;35493;50.276;9.372;2022-07-23T08:53:29;25.10;64.70
49413;DHT22;35493;50.276;9.372;2022-07-23T08:55:59;25.20;65.00
49413;DHT22;35493;50.276;9.372;2022-07-23T08:58:29;25.30;64.20
49413;DHT22;35493;50.276;9.372;2022-07-23T09:00:56;25.30;64.10
49413;DHT22;35493;50.276;9.372;2022-07-23T09:03:25;25.40;63.70
49413;DHT22;35493;50.276;9.372;2022-07-23T09:05:53;25.50;63.70
49413;DHT22;35493;50.276;9.372;2022-07-23T09:08:22;25.60;63.50
49413;DHT22;35493;50.276;9.372;2022-07-23T09:10:52;25.80;63.30
49413;DHT22;35493;50.276;9.372;2022-07-23T09:16:12;26.00;62.50
49413;DHT22;35493;50.276;9.372;2022-07-23T09:18:42;26.00;62.30
49413;DHT22;35493;50.276;9.372;2022-07-23T09:23:55;26.20;62.20
49413;DHT22;35493;50.276;9.372;2022-07-23T09:26:25;26.30;62.40
49413;DHT22;35493;50.276;9.372;2022-07-23T09:28:57;26.40;62.00
49413;DHT22;35493;50.276;9.372;2022-07-23T09:31:31;26.50;61.40
49413;DHT22;35493;50.276;9.372;2022-07-23T09:34:10;26.70;60.80
49413;DHT22;35493;50.276;9.372;2022-07-23T09:36:38;26.80;60.90
49413;DHT22;35493;50.276;9.372;2022-07-23T09:39:05;26.90;60.50
49413;DHT22;35493;50.276;9.372;2022-07-23T09:41:44;27.00;59.80
49413;DHT22;35493;50.276;9.372;2022-07-23T09:44:13;27.10;59.50
49413;DHT22;35493;50.276;9.372;2022-07-23T09:46:43;27.20;58.40
49413;DHT22;35493;50.276;9.372;2022-07-23T09:49:14;27.30;58.30
49413;DHT22;35493;50.276;9.372;2022-07-23T09:51:47;27.40;57.70
49413;DHT22;35493;50.276;9.372;2022-07-23T09:54:29;27.50;58.00
49413;DHT22;35493;50.276;9.372;2022-07-23T09:56:58;27.60;57.30
49413;DHT22;35493;50.276;9.372;2022-07-23T09:59:27;27.70;57.40
49413;DHT22;35493;50.276;9.372;2022-07-23T10:01:58;27.90;57.10
49413;DHT22;35493;50.276;9.372;2022-07-23T10:04:27;28.10;56.80
49413;DHT22;35493;50.276;9.372;2022-07-23T10:07:17;28.20;56.20
49413;DHT22;35493;50.276;9.372;2022-07-23T10:10:07;28.20;56.40
49413;DHT22;35493;50.276;9.372;2022-07-23T10:12:34;28.00;55.70
49413;DHT22;35493;50.276;9.372;2022-07-23T10:15:26;27.90;56.00
49413;DHT22;35493;50.276;9.372;2022-07-23T10:17:54;27.60;56.00
49413;DHT22;35493;50.276;9.372;2022-07-23T10:20:21;27.40;56.40
49413;DHT22;35493;50.276;9.372;2022-07-23T10:22:57;27.30;56.50
49413;DHT22;35493;50.276;9.372;2022-07-23T10:25:30;27.20;56.30
49413;DHT22;35493;50.276;9.372;2022-07-23T10:28:06;27.20;56.90
49413;DHT22;35493;50.276;9.372;2022-07-23T10:30:43;27.30;56.70
49413;DHT22;35493;50.276;9.372;2022-07-23T10:33:24;27.40;56.60
49413;DHT22;35493;50.276;9.372;2022-07-23T10:35:58;27.50;56.20
49413;DHT22;35493;50.276;9.372;2022-07-23T10:38:30;27.70;56.00
49413;DHT22;35493;50.276;9.372;2022-07-23T10:40:59;27.90;55.70
49413;DHT22;35493;50.276;9.372;2022-07-23T10:43:29;28.10;55.20
49413;DHT22;35493;50.276;9.372;2022-07-23T10:46:20;28.30;54.30
49413;DHT22;35493;50.276;9.372;2022-07-23T10:49:20;28.50;54.10
49413;DHT22;35493;50.276;9.372;2022-07-23T10:52:18;28.50;53.30
49413;DHT22;35493;50.276;9.372;2022-07-23T10:54:47;28.40;53.00
49413;DHT22;35493;50.276;9.372;2022-07-23T10:57:15;28.30;53.00
49413;DHT22;35493;50.276;9.372;2022-07-23T11:00:13;28.10;52.60
49413;DHT22;35493;50.276;9.372;2022-07-23T11:02:43;28.00;52.70
49413;DHT22;35493;50.276;9.372;2022-07-23T11:05:14;27.90;52.60
49413;DHT22;35493;50.276;9.372;2022-07-23T11:08:13;27.80;52.70
49413;DHT22;35493;50.276;9.372;2022-07-23T11:10:47;27.70;53.20
49413;DHT22;35493;50.276;9.372;2022-07-23T11:13:44;27.70;53.10
49413;DHT22;35493;50.276;9.372;2022-07-23T11:19:06;27.60;53.30
49413;DHT22;35493;50.276;9.372;2022-07-23T11:21:58;27.60;53.60
49413;DHT22;35493;50.276;9.372;2022-07-23T11:24:25;27.60;53.70
49413;DHT22;35493;50.276;9.372;2022-07-23T11:27:00;27.70;53.40
49413;DHT22;35493;50.276;9.372;2022-07-23T11:29:38;27.70;53.30
49413;DHT22;35493;50.276;9.372;2022-07-23T11:32:07;27.70;53.20
49413;DHT22;35493;50.276;9.372;2022-07-23T11:34:39;27.70;53.50
49413;DHT22;35493;50.276;9.372;2022-07-23T11:37:09;27.70;53.10
49413;DHT22;35493;50.276;9.372;2022-07-23T11:39:36;27.60;52.80
49413;DHT22;35493;50.276;9.372;2022-07-23T11:42:06;27.60;52.90
49413;DHT22;35493;50.276;9.372;2022-07-23T11:44:35;27.50;53.10
49413;DHT22;35493;50.276;9.372;2022-07-23T11:47:03;27.60;53.10
49413;DHT22;35493;50.276;9.372;2022-07-23T11:49:30;27.70;53.00
49413;DHT22;35493;50.276;9.372;2022-07-23T11:52:05;27.90;52.40
49413;DHT22;35493;50.276;9.372;2022-07-23T11:54:35;28.00;52.70
49413;DHT22;35493;50.276;9.372;2022-07-23T11:57:03;28.00;52.50
49413;DHT22;35493;50.276;9.372;2022-07-23T11:59:32;28.00;52.00
49413;DHT22;35493;50.276;9.372;2022-07-23T12:02:03;27.90;52.00
49413;DHT22;35493;50.276;9.372;2022-07-23T12:04:37;28.10;51.80
49413;DHT22;35493;50.276;9.372;2022-07-23T12:07:10;28.30;50.50
49413;DHT22;35493;50.276;9.372;2022-07-23T12:09:50;28.30;49.80
49413;DHT22;35493;50.276;9.372;2022-07-23T12:12:17;28.50;50.00
49413;DHT22;35493;50.276;9.372;2022-07-23T12:14:48;28.60;49.60
49413;DHT22;35493;50.276;9.372;2022-07-23T12:17:15;28.80;48.90
49413;DHT22;35493;50.276;9.372;2022-07-23T12:19:42;28.80;48.60
49413;DHT22;35493;50.276;9.372;2022-07-23T12:22:10;29.00;48.40
49413;DHT22;35493;50.276;9.372;2022-07-23T12:24:54;29.10;48.40
49413;DHT22;35493;50.276;9.372;2022-07-23T12:27:22;29.10;48.10
49413;DHT22;35493;50.276;9.372;2022-07-23T12:29:49;29.30;47.90
49413;DHT22;35493;50.276;9.372;2022-07-23T12:32:25;29.30;47.70
49413;DHT22;35493;50.276;9.372;2022-07-23T12:35:03;29.40;46.50
49413;DHT22;35493;50.276;9.372;2022-07-23T12:37:32;29.50;45.70
49413;DHT22;35493;50.276;9.372;2022-07-23T12:42:43;29.60;43.10
49413;DHT22;35493;50.276;9.372;2022-07-23T12:45:10;29.60;43.80
49413;DHT22;35493;50.276;9.372;2022-07-23T12:47:58;29.70;44.30
49413;DHT22;35493;50.276;9.372;2022-07-23T12:50:36;29.70;44.50
49413;DHT22;35493;50.276;9.372;2022-07-23T12:53:05;29.80;44.70
49413;DHT22;35493;50.276;9.372;2022-07-23T12:55:31;29.80;44.90
49413;DHT22;35493;50.276;9.372;2022-07-23T12:58:09;29.80;43.80
49413;DHT22;35493;50.276;9.372;2022-07-23T13:00:57;29.80;43.00
49413;DHT22;35493;50.276;9.372;2022-07-23T13:03:30;29.80;43.00
49413;DHT22;35493;50.276;9.372;2022-07-23T13:05:58;29.70;43.60
49413;DHT22;35493;50.276;9.372;2022-07-23T13:08:28;29.70;42.30
49413;DHT22;35493;50.276;9.372;2022-07-23T13:10:55;29.70;42.80
49413;DHT22;35493;50.276;9.372;2022-07-23T13:13:25;29.60;42.80
49413;DHT22;35493;50.276;9.372;2022-07-23T13:15:53;29.60;43.00
49413;DHT22;35493;50.276;9.372;2022-07-23T13:18:20;29.60;43.10
49413;DHT22;35493;50.276;9.372;2022-07-23T13:20:48;29.60;43.10
49413;DHT22;35493;50.276;9.372;2022-07-23T13:23:15;29.60;43.30
49413;DHT22;35493;50.276;9.372;2022-07-23T13:25:42;29.60;42.90
49413;DHT22;35493;50.276;9.372;2022-07-23T13:28:10;29.60;42.60
49413;DHT22;35493;50.276;9.372;2022-07-23T13:30:39;29.70;43.00
49413;DHT22;35493;50.276;9.372;2022-07-23T13:33:06;29.70;43.10
49413;DHT22;35493;50.276;9.372;2022-07-23T13:35:34;29.70;43.30
49413;DHT22;35493;50.276;9.372;2022-07-23T13:38:01;29.80;41.60
49413;DHT22;35493;50.276;9.372;2022-07-23T13:40:28;29.80;42.40
49413;DHT22;35493;50.276;9.372;2022-07-23T13:42:55;29.80;42.90
49413;DHT22;35493;50.276;9.372;2022-07-23T13:45:22;29.80;43.00
49413;DHT22;35493;50.276;9.372;2022-07-23T13:47:50;29.80;42.70
49413;DHT22;35493;50.276;9.372;2022-07-23T13:50:17;29.80;42.70
49413;DHT22;35493;50.276;9.372;2022-07-23T13:52:44;29.80;42.00
49413;DHT22;35493;50.276;9.372;2022-07-23T13:55:11;29.80;41.50
49413;DHT22;35493;50.276;9.372;2022-07-23T13:57:38;29.80;41.60
49413;DHT22;35493;50.276;9.372;2022-07-23T14:00:08;29.80;42.30
49413;DHT22;35493;50.276;9.372;2022-07-23T14:02:38;29.70;42.70
49413;DHT22;35493;50.276;9.372;2022-07-23T14:05:08;29.60;43.00
49413;DHT22;35493;50.276;9.372;2022-07-23T14:07:36;29.60;41.90
49413;DHT22;35493;50.276;9.372;2022-07-23T14:10:04;29.70;41.30
49413;DHT22;35493;50.276;9.372;2022-07-23T14:12:31;29.70;42.00
49413;DHT22;35493;50.276;9.372;2022-07-23T14:14:58;29.60;41.90
49413;DHT22;35493;50.276;9.372;2022-07-23T14:17:26;29.60;42.20
49413;DHT22;35493;50.276;9.372;2022-07-23T14:19:53;29.60;41.80
49413;DHT22;35493;50.276;9.372;2022-07-23T14:22:21;29.50;41.80
49413;DHT22;35493;50.276;9.372;2022-07-23T14:24:49;29.60;42.10
49413;DHT22;35493;50.276;9.372;2022-07-23T14:27:16;29.60;41.00
49413;DHT22;35493;50.276;9.372;2022-07-23T14:29:43;29.60;42.10
49413;DHT22;35493;50.276;9.372;2022-07-23T14:32:10;29.60;42.50
49413;DHT22;35493;50.276;9.372;2022-07-23T14:34:37;29.60;40.70
49413;DHT22;35493;50.276;9.372;2022-07-23T14:37:04;29.60;41.50
49413;DHT22;35493;50.276;9.372;2022-07-23T14:39:33;29.50;42.30
49413;DHT22;35493;50.276;9.372;2022-07-23T14:41:59;29.50;42.70
49413;DHT22;35493;50.276;9.372;2022-07-23T14:44:27;29.40;42.20
49413;DHT22;35493;50.276;9.372;2022-07-23T14:46:54;29.40;41.90
49413;DHT22;35493;50.276;9.372;2022-07-23T14:49:21;29.40;42.00
49413;DHT22;35493;50.276;9.372;2022-07-23T14:51:48;29.30;42.30
49413;DHT22;35493;50.276;9.372;2022-07-23T14:54:15;29.20;41.70
49413;DHT22;35493;50.276;9.372;2022-07-23T14:56:44;29.10;42.30
49413;DHT22;35493;50.276;9.372;2022-07-23T14:59:11;29.10;41.70
49413;DHT22;35493;50.276;9.372;2022-07-23T15:01:38;29.20;41.90
49413;DHT22;35493;50.276;9.372;2022-07-23T15:04:06;29.20;40.90
49413;DHT22;35493;50.276;9.372;2022-07-23T15:06:33;29.20;42.10
49413;DHT22;35493;50.276;9.372;2022-07-23T15:09:00;29.20;41.60
49413;DHT22;35493;50.276;9.372;2022-07-23T15:11:27;29.20;42.60
49413;DHT22;35493;50.276;9.372;2022-07-23T15:13:59;29.20;41.90
49413;DHT22;35493;50.276;9.372;2022-07-23T15:16:27;29.20;41.30
49413;DHT22;35493;50.276;9.372;2022-07-23T15:18:54;29.20;41.00
49413;DHT22;35493;50.276;9.372;2022-07-23T15:21:21;29.20;40.90
49413;DHT22;35493;50.276;9.372;2022-07-23T15:23:48;29.20;40.70
49413;DHT22;35493;50.276;9.372;2022-07-23T15:26:15;29.10;41.00
49413;DHT22;35493;50.276;9.372;2022-07-23T15:28:43;29.10;41.20
49413;DHT22;35493;50.276;9.372;2022-07-23T15:31:11;29.10;41.80
49413;DHT22;35493;50.276;9.372;2022-07-23T15:33:38;29.10;41.60
49413;DHT22;35493;50.276;9.372;2022-07-23T15:36:06;29.00;42.20
49413;DHT22;35493;50.276;9.372;2022-07-23T15:38:35;28.90;42.20
49413;DHT22;35493;50.276;9.372;2022-07-23T15:41:02;28.90;41.90
49413;DHT22;35493;50.276;9.372;2022-07-23T15:43:29;28.80;41.60
49413;DHT22;35493;50.276;9.372;2022-07-23T15:45:56;28.80;41.80
49413;DHT22;35493;50.276;9.372;2022-07-23T15:48:25;28.80;43.10
49413;DHT22;35493;50.276;9.372;2022-07-23T15:50:52;28.70;43.10
49413;DHT22;35493;50.276;9.372;2022-07-23T15:53:19;28.70;43.80
49413;DHT22;35493;50.276;9.372;2022-07-23T15:55:46;28.70;42.90